Accueil
METAR-TAF:

METAR-TAF

Aéroports :

Ciudad Obregón, Mexique

latitude: 27-24N, longitude: 109-50W, altitude: 62 m

Observation

Le bulletin a été fait il y a 10 heures et 47 minutes, à 00:40 UTC
Vent 8 kt de sud-ouest
Température 27°C
Humidité 17%
Pression 1008 hPa
Visibilité: 16.1 km
Ciel clair

METAR: MMCN 180040Z 23008KT 10SM SKC 27/00 A2976

Heure: 04:27 (11:27 UTC)

Prévision

Le bulletin a été fait il y a 9 heures et 4 minutes, à 02:23 UTC
Prévision valable du 18 à 06 UTC au 19 à 06 UTC
Vent 5 kt de sud-ouest
Visibilité: 10 km
Ciel clair
A partir de 18 à 2000 UTC
Vent 10 kt de sud-ouest
Visibilité: 10 km
Ciel clair
A partir de 19 à 0200 UTC
Vent 5 kt de sud-ouest
Visibilité: 10 km
Ciel clair

TAF: MMCN 180223Z 1806/1906 23005KT P6SM SKC FM182000 23010KT P6SM SKC FM190200 23005KT P6SM SKC

Observations et prévisions météorologiques de plus de 4000 aéroports (messages METAR et TAF).

Les stations disponibles sont représentées par des disques jaunes et rouges sur la carte.

Passer la souris dessus pour voir le nom de la station.

Cliquer dessus pour voir les observations et prévisions météorologiques.

Pour changer de carte: cliquez sur les boutons verts avec une croix noire pour zoomer, sur le bouton vert avec un tiret pour effectuer un zoom arrière, ou sur les flèches vertes pour les cartes adjacentes.


METAR-TAF: